createdAt,value
2023-03-24T00:00:45.922Z,67.60
2023-03-24T00:03:17.007Z,68.20
2023-03-24T00:05:45.050Z,69.10
2023-03-24T00:08:12.366Z,69.20
2023-03-24T00:10:40.539Z,69.10
2023-03-24T00:13:07.792Z,69.30
2023-03-24T00:15:36.391Z,69.30
2023-03-24T00:18:04.579Z,69.60
2023-03-24T00:20:33.067Z,70.00
2023-03-24T00:23:00.405Z,70.00
2023-03-24T00:25:33.968Z,69.50
2023-03-24T00:28:01.522Z,69.40
2023-03-24T00:30:29.321Z,69.80
2023-03-24T00:32:59.261Z,69.90
2023-03-24T00:35:26.705Z,69.80
2023-03-24T00:37:54.294Z,68.90
2023-03-24T00:40:22.438Z,68.60
2023-03-24T00:42:50.880Z,68.60
2023-03-24T00:45:23.217Z,68.30
2023-03-24T00:47:54.642Z,68.80
2023-03-24T00:50:26.706Z,69.10
2023-03-24T00:52:56.420Z,70.00
2023-03-24T00:55:23.939Z,70.50
2023-03-24T00:57:51.572Z,70.60
2023-03-24T01:00:24.428Z,70.50
2023-03-24T01:02:57.837Z,70.60
2023-03-24T01:05:28.474Z,71.00
2023-03-24T01:08:03.849Z,71.00
2023-03-24T01:10:42.620Z,70.90
2023-03-24T01:13:10.481Z,71.00
2023-03-24T01:15:38.433Z,70.80
2023-03-24T01:18:06.681Z,70.70
2023-03-24T01:20:34.276Z,72.50
2023-03-24T01:23:05.691Z,73.50
2023-03-24T01:25:36.373Z,74.60
2023-03-24T01:28:04.388Z,75.10
2023-03-24T01:30:32.262Z,74.80
2023-03-24T01:33:05.762Z,74.80
2023-03-24T01:35:58.221Z,75.10
2023-03-24T01:38:25.697Z,75.70
2023-03-24T01:41:02.265Z,76.10
2023-03-24T01:43:42.013Z,76.90
2023-03-24T01:46:27.986Z,77.90
2023-03-24T01:49:13.159Z,77.10
2023-03-24T01:51:50.241Z,75.70
2023-03-24T01:54:30.905Z,74.50
2023-03-24T01:57:16.287Z,74.00
2023-03-24T02:00:14.894Z,74.80
2023-03-24T02:03:04.889Z,73.80
2023-03-24T02:05:57.870Z,75.30
2023-03-24T02:08:48.430Z,75.10
2023-03-24T02:11:16.591Z,74.90
2023-03-24T02:13:51.493Z,74.50
2023-03-24T02:16:27.757Z,74.70
2023-03-24T02:19:04.482Z,76.90
2023-03-24T02:21:50.516Z,78.30
2023-03-24T02:24:33.165Z,78.80
2023-03-24T02:27:30.108Z,78.90
2023-03-24T02:30:35.945Z,79.80
2023-03-24T02:33:20.923Z,80.70
2023-03-24T02:35:57.054Z,80.20
2023-03-24T02:38:34.577Z,79.40
2023-03-24T02:41:17.174Z,79.00
2023-03-24T02:43:50.416Z,78.40
2023-03-24T02:46:47.438Z,77.90
2023-03-24T02:49:36.889Z,77.50
2023-03-24T02:52:34.654Z,77.00
2023-03-24T02:55:19.197Z,77.40
2023-03-24T02:57:57.528Z,79.60
2023-03-24T03:00:59.584Z,81.70
2023-03-24T03:03:55.741Z,83.50
2023-03-24T03:06:31.430Z,85.20
2023-03-24T03:09:04.382Z,86.20
2023-03-24T03:11:31.856Z,86.50
2023-03-24T03:14:11.657Z,86.60
2023-03-24T03:16:53.678Z,87.10
2023-03-24T03:19:28.343Z,88.30
2023-03-24T03:21:58.857Z,88.70
2023-03-24T03:24:37.454Z,89.00
2023-03-24T03:27:09.639Z,89.30
2023-03-24T03:29:40.587Z,90.00
2023-03-24T03:32:11.104Z,90.30
2023-03-24T03:35:05.283Z,90.60
2023-03-24T03:37:35.605Z,91.00
2023-03-24T03:40:19.893Z,91.60
2023-03-24T03:42:52.840Z,92.20
2023-03-24T03:45:20.389Z,92.80
2023-03-24T03:47:48.393Z,93.20
2023-03-24T03:50:16.178Z,93.60
2023-03-24T03:52:44.786Z,93.90
2023-03-24T03:55:13.768Z,93.80
2023-03-24T03:57:43.500Z,93.00
2023-03-24T04:00:24.724Z,92.50
2023-03-24T04:03:37.218Z,92.50
2023-03-24T04:06:14.680Z,92.10
2023-03-24T04:08:53.469Z,92.70
2023-03-24T04:11:50.781Z,93.20
2023-03-24T04:15:08.360Z,93.60
2023-03-24T04:18:03.086Z,94.10
2023-03-24T04:21:02.400Z,94.70
2023-03-24T04:23:44.694Z,95.30
2023-03-24T04:26:34.720Z,95.60
2023-03-24T04:29:09.947Z,95.90
2023-03-24T04:31:54.237Z,96.00
2023-03-24T04:34:29.444Z,96.10
2023-03-24T04:37:12.645Z,96.20
2023-03-24T04:40:01.330Z,96.10
2023-03-24T04:42:46.819Z,96.20
2023-03-24T04:45:17.122Z,96.20
2023-03-24T04:48:23.160Z,96.80
2023-03-24T04:51:09.231Z,97.10
2023-03-24T04:54:08.826Z,97.30
2023-03-24T04:56:49.002Z,97.90
2023-03-24T04:59:34.002Z,98.20
2023-03-24T05:02:03.496Z,98.30
2023-03-24T05:04:40.134Z,98.60
2023-03-24T05:07:21.479Z,98.50
2023-03-24T05:09:52.455Z,98.60
2023-03-24T05:12:20.138Z,98.60
2023-03-24T05:15:07.079Z,98.70
2023-03-24T05:17:36.210Z,98.80
2023-03-24T05:20:10.680Z,98.80
2023-03-24T05:22:40.041Z,98.80
2023-03-24T05:25:08.687Z,98.80
2023-03-24T05:27:36.170Z,98.90
2023-03-24T05:30:17.591Z,98.80
2023-03-24T05:32:47.127Z,98.90
2023-03-24T05:35:15.115Z,98.90
2023-03-24T05:37:43.816Z,98.70
2023-03-24T05:40:12.540Z,99.00
2023-03-24T05:42:53.674Z,99.10
2023-03-24T05:45:25.477Z,99.20
2023-03-24T05:47:53.724Z,99.50
2023-03-24T05:50:29.479Z,99.60
2023-03-24T05:52:57.393Z,99.70
2023-03-24T05:55:49.648Z,99.70
2023-03-24T05:58:39.265Z,99.60
2023-03-24T06:01:08.945Z,99.40
2023-03-24T06:03:41.482Z,99.20
2023-03-24T06:06:14.978Z,99.00
2023-03-24T06:08:45.235Z,99.00
2023-03-24T06:11:14.135Z,99.00
2023-03-24T06:13:52.331Z,99.00
2023-03-24T06:16:24.075Z,99.00
2023-03-24T06:18:57.525Z,99.00
2023-03-24T06:22:03.318Z,98.80
2023-03-24T06:24:37.802Z,98.50
2023-03-24T06:27:09.358Z,98.40
2023-03-24T06:29:37.516Z,98.30
2023-03-24T06:32:08.154Z,98.10
2023-03-24T06:34:41.809Z,98.10
2023-03-24T06:37:16.798Z,98.00
2023-03-24T06:39:45.380Z,98.00
2023-03-24T06:42:14.812Z,97.70
2023-03-24T06:44:42.506Z,97.50
2023-03-24T06:47:09.995Z,97.60
2023-03-24T06:49:37.536Z,97.50
2023-03-24T06:52:05.389Z,97.30
2023-03-24T06:54:36.846Z,97.10
2023-03-24T06:57:04.959Z,96.90
2023-03-24T06:59:53.045Z,96.70
2023-03-24T07:02:21.454Z,96.50
2023-03-24T07:04:54.183Z,96.30
2023-03-24T07:10:30.118Z,96.40
2023-03-24T07:12:57.770Z,96.30
2023-03-24T07:15:25.711Z,96.20
2023-03-24T07:17:54.671Z,96.10
2023-03-24T07:20:35.918Z,96.00
2023-03-24T07:23:17.530Z,95.90
2023-03-24T07:26:03.296Z,95.90
2023-03-24T07:28:49.482Z,95.30
2023-03-24T07:31:38.293Z,95.00
2023-03-24T07:34:09.179Z,94.80
2023-03-24T07:36:39.207Z,94.80
2023-03-24T07:39:11.046Z,95.20
2023-03-24T07:41:38.516Z,95.30
2023-03-24T07:44:14.684Z,95.40
2023-03-24T07:46:49.590Z,95.20
2023-03-24T07:49:19.955Z,94.70
2023-03-24T07:52:13.942Z,94.30
2023-03-24T07:54:44.979Z,94.10
2023-03-24T07:57:26.359Z,93.50
2023-03-24T07:59:53.761Z,93.40
2023-03-24T08:02:44.437Z,93.30
2023-03-24T08:05:38.719Z,93.10
2023-03-24T08:08:32.826Z,92.90
2023-03-24T08:11:00.670Z,92.60
2023-03-24T08:13:28.720Z,92.60
2023-03-24T08:15:56.517Z,92.60
2023-03-24T08:18:25.297Z,92.70
2023-03-24T08:20:57.813Z,92.80
2023-03-24T08:23:25.850Z,92.80
2023-03-24T08:25:53.253Z,92.70
2023-03-24T08:28:20.760Z,92.50
2023-03-24T08:30:48.622Z,92.40
2023-03-24T08:33:16.682Z,92.50
2023-03-24T08:35:46.408Z,92.50
2023-03-24T08:38:16.836Z,92.50
2023-03-24T08:40:45.616Z,92.40
2023-03-24T08:43:15.620Z,92.40
2023-03-24T08:45:43.399Z,92.40
2023-03-24T08:48:11.233Z,92.40
2023-03-24T08:50:41.797Z,92.40
2023-03-24T08:53:11.702Z,92.20
2023-03-24T08:55:41.971Z,92.20
2023-03-24T08:58:14.562Z,92.20
2023-03-24T09:00:44.280Z,92.10
2023-03-24T09:03:18.753Z,92.10
2023-03-24T09:05:47.589Z,92.00
2023-03-24T09:08:17.177Z,91.90
2023-03-24T09:10:47.021Z,91.90
2023-03-24T09:13:15.445Z,91.80
2023-03-24T09:15:52.059Z,91.70
2023-03-24T09:18:21.345Z,91.70
2023-03-24T09:20:49.666Z,91.70
2023-03-24T09:23:20.342Z,91.80
2023-03-24T09:25:54.039Z,91.70
2023-03-24T09:28:22.522Z,91.70
2023-03-24T09:30:50.374Z,91.60
2023-03-24T09:33:17.955Z,91.40
2023-03-24T09:35:45.280Z,91.20
2023-03-24T09:38:12.636Z,91.10
2023-03-24T09:40:40.819Z,91.50
2023-03-24T09:43:42.708Z,91.30
2023-03-24T09:46:20.768Z,91.10
2023-03-24T09:49:00.502Z,90.80
2023-03-24T09:51:40.986Z,90.60
2023-03-24T09:54:08.259Z,90.10
2023-03-24T09:56:42.724Z,90.40
2023-03-24T09:59:20.416Z,90.50
2023-03-24T10:01:48.700Z,90.30
2023-03-24T10:04:19.611Z,90.10
2023-03-24T10:06:53.080Z,89.00
2023-03-24T10:09:27.333Z,87.00
2023-03-24T10:12:15.905Z,86.40
2023-03-24T10:14:52.077Z,84.40
2023-03-24T10:17:37.772Z,84.00
2023-03-24T10:20:29.938Z,83.10
2023-03-24T10:23:34.576Z,83.00
2023-03-24T10:26:26.583Z,83.60
2023-03-24T10:29:13.804Z,82.00
2023-03-24T10:31:43.109Z,82.50
2023-03-24T10:34:12.640Z,80.80
2023-03-24T10:36:41.255Z,79.70
2023-03-24T10:39:20.017Z,79.60
2023-03-24T10:41:51.795Z,77.20
2023-03-24T10:44:19.458Z,76.40
2023-03-24T10:46:51.102Z,76.80
2023-03-24T10:49:23.723Z,77.40
2023-03-24T10:51:54.222Z,77.80
2023-03-24T10:54:22.099Z,78.10
2023-03-24T10:57:06.663Z,76.90
2023-03-24T10:59:40.832Z,74.40
2023-03-24T11:02:18.794Z,74.60
2023-03-24T11:04:53.067Z,76.30
2023-03-24T11:07:22.827Z,76.70
2023-03-24T11:10:02.212Z,76.80
2023-03-24T11:12:32.827Z,77.10
2023-03-24T11:15:22.142Z,76.20
2023-03-24T11:18:16.590Z,75.50
2023-03-24T11:20:50.950Z,76.10
2023-03-24T11:23:26.200Z,74.90
2023-03-24T11:26:07.570Z,74.20
2023-03-24T11:28:53.531Z,73.20
2023-03-24T11:31:26.888Z,73.10
2023-03-24T11:34:01.430Z,71.80
2023-03-24T11:36:33.104Z,70.70
2023-03-24T11:39:12.752Z,70.50
2023-03-24T11:41:59.600Z,70.70
2023-03-24T11:44:27.151Z,70.30
2023-03-24T11:47:02.552Z,69.50
2023-03-24T11:49:34.044Z,69.20
2023-03-24T11:52:03.624Z,67.50
2023-03-24T11:54:36.614Z,66.20
2023-03-24T11:57:10.772Z,66.90
2023-03-24T11:59:41.816Z,66.60
2023-03-24T12:02:10.639Z,65.30
2023-03-24T12:05:05.492Z,65.60
2023-03-24T12:08:11.460Z,62.90
2023-03-24T12:10:50.539Z,62.50
2023-03-24T12:13:46.035Z,61.60
2023-03-24T12:16:24.058Z,61.60
2023-03-24T12:19:11.888Z,61.00
2023-03-24T12:21:41.842Z,61.80
2023-03-24T12:24:27.585Z,60.90
2023-03-24T12:27:00.891Z,59.20
2023-03-24T12:29:43.231Z,59.40
2023-03-24T12:32:13.595Z,58.80
2023-03-24T12:34:42.529Z,59.10
2023-03-24T12:37:15.798Z,58.40
2023-03-24T12:40:06.779Z,57.70
2023-03-24T12:42:40.729Z,56.40
2023-03-24T12:45:19.780Z,55.00
2023-03-24T12:48:31.998Z,56.70
2023-03-24T12:51:08.079Z,54.70
2023-03-24T12:53:44.982Z,54.10
2023-03-24T12:56:21.188Z,54.40
2023-03-24T12:58:54.014Z,54.50
2023-03-24T13:01:29.582Z,53.50
2023-03-24T13:04:16.820Z,50.70
2023-03-24T13:06:50.317Z,49.00
2023-03-24T13:12:22.578Z,44.20
2023-03-24T13:15:16.415Z,39.50
2023-03-24T13:17:49.889Z,34.40
2023-03-24T13:20:42.413Z,31.50
2023-03-24T13:23:35.450Z,29.20
2023-03-24T13:29:05.925Z,27.00
2023-03-24T13:31:41.257Z,24.90
2023-03-24T13:34:34.550Z,24.00
2023-03-24T13:37:16.378Z,24.00
2023-03-24T13:39:46.278Z,23.30
2023-03-24T13:42:34.728Z,22.60
2023-03-24T13:45:06.304Z,22.50
2023-03-24T13:47:57.718Z,22.40
2023-03-24T13:50:26.216Z,22.50
2023-03-24T13:52:54.297Z,22.00
2023-03-24T13:55:30.941Z,21.70
2023-03-24T13:58:10.778Z,20.90
2023-03-24T14:01:05.861Z,21.00
2023-03-24T14:03:34.597Z,21.90
2023-03-24T14:06:05.439Z,22.30
2023-03-24T14:08:41.944Z,21.90
2023-03-24T14:11:49.681Z,22.00
2023-03-24T14:14:19.691Z,21.60
2023-03-24T14:17:08.235Z,21.30
2023-03-24T14:20:09.861Z,21.20
2023-03-24T14:22:49.897Z,21.60
2023-03-24T14:25:17.126Z,21.70
2023-03-24T14:27:46.628Z,21.80
2023-03-24T14:30:38.112Z,22.00
2023-03-24T14:33:05.761Z,21.60
2023-03-24T14:35:33.097Z,21.30
2023-03-24T14:38:04.774Z,21.70
2023-03-24T14:40:42.053Z,21.70
2023-03-24T14:43:26.316Z,21.80
2023-03-24T14:46:01.431Z,21.70
2023-03-24T14:48:32.016Z,21.70
2023-03-24T14:51:07.281Z,21.70
2023-03-24T14:53:37.534Z,21.80
2023-03-24T14:56:08.082Z,21.90
2023-03-24T14:58:41.595Z,23.00
2023-03-24T15:01:11.161Z,23.50
2023-03-24T15:03:52.553Z,23.70
2023-03-24T15:06:23.646Z,24.00
2023-03-24T15:08:53.613Z,24.20
2023-03-24T15:11:33.657Z,23.90
2023-03-24T15:14:03.701Z,24.30
2023-03-24T15:16:38.685Z,24.60
2023-03-24T15:19:17.780Z,24.50
2023-03-24T15:21:59.016Z,25.00
2023-03-24T15:24:30.860Z,25.20
2023-03-24T15:27:07.504Z,25.50
2023-03-24T15:29:42.786Z,27.10
2023-03-24T15:32:22.092Z,27.90
2023-03-24T15:37:23.861Z,28.20
2023-03-24T15:39:59.225Z,28.90
2023-03-24T15:42:33.438Z,29.40
2023-03-24T15:45:11.942Z,29.80
2023-03-24T15:47:42.347Z,29.90
2023-03-24T15:50:39.260Z,30.40
2023-03-24T15:53:16.144Z,31.30
2023-03-24T15:55:46.513Z,31.50
2023-03-24T15:58:28.935Z,32.30
2023-03-24T16:01:00.112Z,33.30
2023-03-24T16:03:30.357Z,32.90
2023-03-24T16:05:58.197Z,33.60
2023-03-24T16:08:30.826Z,33.50
2023-03-24T16:11:07.108Z,34.20
2023-03-24T16:13:35.049Z,34.50
2023-03-24T16:16:14.225Z,34.30
2023-03-24T16:18:47.183Z,34.60
2023-03-24T16:21:28.909Z,35.30
2023-03-24T16:23:58.273Z,35.10
2023-03-24T16:26:28.590Z,36.00
2023-03-24T16:29:16.877Z,36.20
2023-03-24T16:31:49.171Z,36.50
2023-03-24T16:34:21.114Z,36.80
2023-03-24T16:36:50.109Z,37.20
2023-03-24T16:39:23.144Z,37.70
2023-03-24T16:41:50.560Z,38.30
2023-03-24T16:44:17.945Z,38.70
2023-03-24T16:46:46.890Z,39.20
2023-03-24T16:49:16.753Z,39.60
2023-03-24T16:51:45.183Z,39.70
2023-03-24T16:54:12.604Z,40.10
2023-03-24T16:56:40.452Z,40.60
2023-03-24T16:59:09.080Z,40.90
2023-03-24T17:01:41.950Z,41.30
2023-03-24T17:04:17.773Z,41.60
2023-03-24T17:06:53.564Z,42.20
2023-03-24T17:11:52.083Z,42.10
2023-03-24T17:14:19.568Z,42.50
2023-03-24T17:16:49.277Z,42.60
2023-03-24T17:19:19.087Z,43.00
2023-03-24T17:22:00.672Z,43.20
2023-03-24T17:24:29.426Z,43.40
2023-03-24T17:26:56.886Z,43.50
2023-03-24T17:29:24.274Z,43.70
2023-03-24T17:31:53.378Z,43.80
2023-03-24T17:34:22.184Z,44.00
2023-03-24T17:36:51.302Z,44.00
2023-03-24T17:39:20.379Z,44.00
2023-03-24T17:41:47.840Z,44.20
2023-03-24T17:44:15.575Z,44.40
2023-03-24T17:46:43.015Z,44.40
2023-03-24T17:49:10.479Z,44.30
2023-03-24T17:51:37.854Z,44.60
2023-03-24T17:54:08.420Z,44.70
2023-03-24T17:56:35.775Z,44.90
2023-03-24T17:59:03.632Z,44.90
2023-03-24T18:01:35.203Z,45.10
2023-03-24T18:04:02.560Z,45.20
2023-03-24T18:06:30.874Z,45.20
2023-03-24T18:08:58.542Z,45.40
2023-03-24T18:11:26.104Z,45.50
2023-03-24T18:13:53.617Z,45.40
2023-03-24T18:16:22.386Z,45.80
2023-03-24T18:18:51.208Z,45.80
2023-03-24T18:21:19.664Z,46.00
2023-03-24T18:23:48.600Z,45.90
2023-03-24T18:26:17.606Z,45.80
2023-03-24T18:28:46.110Z,45.60
2023-03-24T18:31:20.182Z,45.30
2023-03-24T18:33:48.968Z,45.50
2023-03-24T18:36:21.372Z,45.50
2023-03-24T18:38:49.387Z,45.40
2023-03-24T18:41:18.423Z,45.50
2023-03-24T18:43:48.305Z,45.30
2023-03-24T18:46:16.481Z,45.40
2023-03-24T18:48:44.405Z,45.30
2023-03-24T18:51:12.083Z,45.40
2023-03-24T18:53:39.437Z,45.00
2023-03-24T18:56:08.354Z,45.00
2023-03-24T18:58:38.173Z,44.90
2023-03-24T19:01:11.306Z,44.70
2023-03-24T19:03:41.066Z,44.60
2023-03-24T19:06:11.776Z,44.70
2023-03-24T19:08:42.189Z,44.70
2023-03-24T19:11:10.636Z,44.50
2023-03-24T19:13:37.944Z,44.50
2023-03-24T19:16:06.130Z,44.30
2023-03-24T19:18:33.508Z,44.50
2023-03-24T19:21:02.172Z,44.50
2023-03-24T19:23:30.627Z,44.50
2023-03-24T19:25:57.977Z,44.60
2023-03-24T19:28:29.113Z,44.80
2023-03-24T19:30:57.622Z,44.60
2023-03-24T19:33:25.692Z,44.90
2023-03-24T19:35:54.310Z,44.70
2023-03-24T19:38:24.152Z,44.80
2023-03-24T19:40:53.900Z,44.80
2023-03-24T19:43:22.993Z,44.40
2023-03-24T19:45:54.813Z,44.70
2023-03-24T19:48:23.263Z,45.00
2023-03-24T19:50:55.600Z,45.20
2023-03-24T19:53:27.093Z,44.80
2023-03-24T19:55:58.342Z,44.60
2023-03-24T19:58:26.330Z,44.80
2023-03-24T20:00:53.859Z,44.80
2023-03-24T20:03:21.688Z,44.70
2023-03-24T20:05:49.851Z,44.70
2023-03-24T20:08:19.331Z,44.90
2023-03-24T20:10:47.136Z,44.70
2023-03-24T20:13:14.417Z,44.30
2023-03-24T20:15:41.894Z,44.80
2023-03-24T20:18:10.835Z,44.70
2023-03-24T20:20:39.815Z,44.90
2023-03-24T20:23:09.610Z,44.70
2023-03-24T20:25:40.715Z,45.10
2023-03-24T20:28:08.377Z,44.20
2023-03-24T20:30:39.635Z,44.30
2023-03-24T20:33:09.992Z,44.60
2023-03-24T20:35:37.365Z,44.70
2023-03-24T20:38:04.966Z,45.00
2023-03-24T20:40:32.355Z,44.90
2023-03-24T20:43:00.011Z,44.90
2023-03-24T20:45:27.632Z,44.80
2023-03-24T20:47:55.205Z,45.00
2023-03-24T20:50:22.627Z,45.30
2023-03-24T20:52:50.002Z,45.20
2023-03-24T20:55:17.843Z,45.20
2023-03-24T20:57:45.222Z,45.50
2023-03-24T21:00:16.347Z,45.90
2023-03-24T21:02:44.081Z,46.30
2023-03-24T21:05:12.028Z,46.70
2023-03-24T21:07:43.660Z,47.00
2023-03-24T21:10:11.794Z,48.30
2023-03-24T21:12:53.126Z,49.20
2023-03-24T21:15:26.266Z,49.60
2023-03-24T21:17:54.353Z,50.00
2023-03-24T21:20:22.344Z,50.20
2023-03-24T21:22:56.155Z,50.50
2023-03-24T21:25:28.551Z,50.60
2023-03-24T21:27:56.914Z,50.80
2023-03-24T21:30:26.226Z,50.90
2023-03-24T21:32:55.532Z,50.80
2023-03-24T21:35:24.982Z,51.00
2023-03-24T21:37:54.157Z,51.10
2023-03-24T21:40:25.518Z,51.20
2023-03-24T21:42:56.416Z,51.20
2023-03-24T21:45:24.206Z,51.40
2023-03-24T21:47:54.960Z,50.70
2023-03-24T21:50:25.801Z,50.60
2023-03-24T21:52:54.758Z,50.60
2023-03-24T21:55:23.269Z,51.00
2023-03-24T21:57:52.044Z,51.00
2023-03-24T22:00:21.910Z,51.10
2023-03-24T22:02:52.680Z,51.40
2023-03-24T22:05:24.587Z,52.20
2023-03-24T22:07:52.938Z,50.90
2023-03-24T22:10:22.851Z,50.40
2023-03-24T22:12:51.637Z,50.80
2023-03-24T22:15:20.119Z,50.40
2023-03-24T22:17:47.766Z,50.40
2023-03-24T22:20:16.074Z,50.30
2023-03-24T22:22:43.678Z,50.30
2023-03-24T22:25:13.278Z,50.70
2023-03-24T22:27:40.848Z,50.80
2023-03-24T22:30:10.432Z,50.70
2023-03-24T22:32:38.456Z,51.10
2023-03-24T22:35:06.939Z,50.90
2023-03-24T22:37:34.976Z,51.20
2023-03-24T22:40:03.533Z,51.30
2023-03-24T22:42:31.321Z,51.50
2023-03-24T22:44:58.697Z,51.30
2023-03-24T22:47:27.492Z,51.40
2023-03-24T22:49:54.959Z,51.40
2023-03-24T22:52:22.402Z,51.40
2023-03-24T22:54:49.662Z,51.50
2023-03-24T22:57:18.794Z,51.40
2023-03-24T22:59:46.160Z,51.30
2023-03-24T23:02:13.857Z,51.10
2023-03-24T23:04:42.138Z,51.00
2023-03-24T23:07:10.437Z,50.80
2023-03-24T23:09:38.406Z,50.60
2023-03-24T23:12:06.242Z,50.60
2023-03-24T23:14:33.593Z,50.50
2023-03-24T23:17:01.859Z,50.30
2023-03-24T23:19:33.255Z,50.50
2023-03-24T23:22:00.763Z,50.30
2023-03-24T23:24:28.837Z,50.30
2023-03-24T23:26:56.296Z,50.40
2023-03-24T23:29:23.714Z,50.40
2023-03-24T23:31:51.019Z,50.50
2023-03-24T23:34:18.365Z,50.50
2023-03-24T23:36:50.056Z,50.50
2023-03-24T23:39:17.502Z,50.60
2023-03-24T23:41:46.376Z,50.70
2023-03-24T23:44:15.063Z,50.80
2023-03-24T23:46:42.464Z,50.90
2023-03-24T23:49:09.818Z,50.90
2023-03-24T23:51:37.208Z,51.20
2023-03-24T23:54:04.838Z,51.30
2023-03-24T23:56:37.161Z,51.30
2023-03-24T23:59:07.872Z,51.40
